createdAt,value
2022-12-04T00:01:12.791Z,18.88
2022-12-04T00:03:39.493Z,23.30
2022-12-04T00:06:08.806Z,20.33
2022-12-04T00:08:35.422Z,19.83
2022-12-04T00:11:04.106Z,17.75
2022-12-04T00:13:30.507Z,18.42
2022-12-04T00:15:56.891Z,17.70
2022-12-04T00:18:23.320Z,19.27
2022-12-04T00:20:49.797Z,15.13
2022-12-04T00:23:16.162Z,16.25
2022-12-04T00:25:42.978Z,18.17
2022-12-04T00:28:09.404Z,18.75
2022-12-04T00:30:40.116Z,17.13
2022-12-04T00:33:06.416Z,18.00
2022-12-04T00:35:32.797Z,18.20
2022-12-04T00:37:59.186Z,17.25
2022-12-04T00:40:25.540Z,15.73
2022-12-04T00:42:51.893Z,17.33
2022-12-04T00:45:18.276Z,16.45
2022-12-04T00:47:44.690Z,15.13
2022-12-04T00:50:11.486Z,17.35
2022-12-04T00:52:37.838Z,17.10
2022-12-04T00:55:04.440Z,15.05
2022-12-04T00:57:31.119Z,16.38
2022-12-04T00:59:57.634Z,16.40
2022-12-04T01:02:27.874Z,14.98
2022-12-04T01:04:54.298Z,15.40
2022-12-04T01:07:21.241Z,14.20
2022-12-04T01:09:47.539Z,15.73
2022-12-04T01:12:20.367Z,15.27
2022-12-04T01:14:47.190Z,16.05
2022-12-04T01:17:14.015Z,13.88
2022-12-04T01:19:40.384Z,14.23
2022-12-04T01:22:06.752Z,14.90
2022-12-04T01:24:33.166Z,15.48
2022-12-04T01:26:59.600Z,13.88
2022-12-04T01:29:25.991Z,16.33
2022-12-04T01:31:52.450Z,16.00
2022-12-04T01:34:19.160Z,15.90
2022-12-04T01:36:45.596Z,17.30
2022-12-04T01:39:12.173Z,14.00
2022-12-04T01:41:38.581Z,13.55
2022-12-04T01:44:17.802Z,16.52
2022-12-04T01:46:46.790Z,14.48
2022-12-04T01:49:21.452Z,12.77
2022-12-04T01:51:51.717Z,12.33
2022-12-04T01:54:29.051Z,13.43
2022-12-04T01:57:05.886Z,14.65
2022-12-04T01:59:40.829Z,12.93
2022-12-04T02:02:11.178Z,13.52
2022-12-04T02:04:39.788Z,12.63
2022-12-04T02:07:06.777Z,11.10
2022-12-04T02:09:34.943Z,12.77
2022-12-04T02:12:32.714Z,15.30
2022-12-04T02:15:07.242Z,13.57
2022-12-04T02:17:51.891Z,14.43
2022-12-04T02:20:48.553Z,12.20
2022-12-04T02:23:40.568Z,15.85
2022-12-04T02:26:29.734Z,13.95
2022-12-04T02:29:02.688Z,13.50
2022-12-04T02:31:38.332Z,12.20
2022-12-04T02:36:45.433Z,13.65
2022-12-04T02:42:16.232Z,13.68
2022-12-04T02:45:00.361Z,13.60
2022-12-04T02:47:27.861Z,12.18
2022-12-04T02:50:00.122Z,13.57
2022-12-04T02:52:38.610Z,11.32
2022-12-04T02:55:10.776Z,13.45
2022-12-04T02:57:42.767Z,14.18
2022-12-04T03:00:10.076Z,15.98
2022-12-04T03:02:54.036Z,11.52
2022-12-04T03:05:32.759Z,11.85
2022-12-04T03:08:04.680Z,14.02
2022-12-04T03:10:36.090Z,13.68
2022-12-04T03:13:14.959Z,16.02
2022-12-04T03:15:46.998Z,11.98
2022-12-04T03:18:35.042Z,12.52
2022-12-04T03:21:12.884Z,14.60
2022-12-04T03:24:00.317Z,14.50
2022-12-04T03:26:35.554Z,13.10
2022-12-04T03:29:13.557Z,15.32
2022-12-04T03:31:45.546Z,15.40
2022-12-04T03:34:15.569Z,14.93
2022-12-04T03:36:53.631Z,12.88
2022-12-04T03:39:26.373Z,13.32
2022-12-04T03:41:59.341Z,13.60
2022-12-04T03:44:50.631Z,14.98
2022-12-04T03:47:21.014Z,16.73
2022-12-04T03:50:00.232Z,12.82
2022-12-04T03:52:32.576Z,13.98
2022-12-04T03:55:08.566Z,15.07
2022-12-04T03:57:42.106Z,14.43
2022-12-04T04:00:14.199Z,13.57
2022-12-04T04:02:47.350Z,13.70
2022-12-04T04:05:15.359Z,12.02
2022-12-04T04:07:45.802Z,13.70
2022-12-04T04:10:18.649Z,17.08
2022-12-04T04:13:18.610Z,14.77
2022-12-04T04:16:09.524Z,14.73
2022-12-04T04:18:58.813Z,15.65
2022-12-04T04:21:51.659Z,17.60
2022-12-04T04:24:37.449Z,14.73
2022-12-04T04:27:04.938Z,15.52
2022-12-04T04:29:31.522Z,18.00
2022-12-04T04:32:25.095Z,16.85
2022-12-04T04:35:03.523Z,15.40
2022-12-04T04:37:48.396Z,14.82
2022-12-04T04:40:27.269Z,16.65
2022-12-04T04:43:02.648Z,13.43
2022-12-04T04:45:32.160Z,12.20
2022-12-04T04:48:03.975Z,12.68
2022-12-04T04:50:34.055Z,19.40
2022-12-04T04:53:05.434Z,17.58
2022-12-04T04:55:34.690Z,14.15
2022-12-04T04:58:08.389Z,15.25
2022-12-04T05:00:35.071Z,16.58
2022-12-04T05:03:01.399Z,14.65
2022-12-04T05:05:27.783Z,13.80
2022-12-04T05:07:54.166Z,14.18
2022-12-04T05:10:20.542Z,14.75
2022-12-04T05:12:46.935Z,19.08
2022-12-04T05:15:13.379Z,14.10
2022-12-04T05:17:39.770Z,14.77
2022-12-04T05:20:07.035Z,14.20
2022-12-04T05:22:35.806Z,18.73
2022-12-04T05:25:03.236Z,16.05
2022-12-04T05:27:30.820Z,17.90
2022-12-04T05:29:58.931Z,16.17
2022-12-04T05:32:28.147Z,18.10
2022-12-04T05:34:56.083Z,15.50
2022-12-04T05:37:23.540Z,14.68
2022-12-04T05:39:49.887Z,18.35
2022-12-04T05:42:16.516Z,16.70
2022-12-04T05:44:42.891Z,16.83
2022-12-04T05:47:09.638Z,16.05
2022-12-04T05:49:36.199Z,16.67
2022-12-04T05:52:04.729Z,18.98
2022-12-04T05:54:31.495Z,17.52
2022-12-04T05:56:57.817Z,13.60
2022-12-04T05:59:24.192Z,16.38
2022-12-04T06:01:50.651Z,20.42
2022-12-04T06:04:17.141Z,16.75
2022-12-04T06:06:43.528Z,19.75
2022-12-04T06:09:11.638Z,19.58
2022-12-04T06:11:40.656Z,17.75
2022-12-04T06:14:09.039Z,18.33
2022-12-04T06:16:38.891Z,18.23
2022-12-04T06:19:08.875Z,17.90
2022-12-04T06:21:38.241Z,18.80
2022-12-04T06:24:05.852Z,18.02
2022-12-04T06:26:32.641Z,20.60
2022-12-04T06:28:59.783Z,18.98
2022-12-04T06:31:28.324Z,16.35
2022-12-04T06:33:56.173Z,20.30
2022-12-04T06:36:23.565Z,17.58
2022-12-04T06:38:51.461Z,18.95
2022-12-04T06:41:20.503Z,16.48
2022-12-04T06:43:48.462Z,17.73
2022-12-04T06:46:18.879Z,14.90
2022-12-04T06:48:45.563Z,19.23
2022-12-04T06:51:14.824Z,19.92
2022-12-04T06:53:41.879Z,16.90
2022-12-04T06:56:11.967Z,18.30
2022-12-04T06:58:38.600Z,16.17
2022-12-04T07:01:12.570Z,17.65
2022-12-04T07:03:39.621Z,19.02
2022-12-04T07:06:16.582Z,15.82
2022-12-04T07:08:44.717Z,19.08
2022-12-04T07:11:11.559Z,16.17
2022-12-04T07:13:38.286Z,17.27
2022-12-04T07:16:07.129Z,17.58
2022-12-04T07:18:34.586Z,15.88
2022-12-04T07:21:08.256Z,19.05
2022-12-04T07:23:35.603Z,19.02
2022-12-04T07:26:06.845Z,17.67
2022-12-04T07:28:35.881Z,16.02
2022-12-04T07:31:10.599Z,18.35
2022-12-04T07:33:38.204Z,17.87
2022-12-04T07:36:07.015Z,17.50
2022-12-04T07:38:34.981Z,15.13
2022-12-04T07:41:03.116Z,16.73
2022-12-04T07:43:30.644Z,16.50
2022-12-04T07:45:57.867Z,19.58
2022-12-04T07:48:28.756Z,18.33
2022-12-04T07:51:06.203Z,17.15
2022-12-04T07:53:35.066Z,21.67
2022-12-04T07:56:02.619Z,17.17
2022-12-04T07:58:29.034Z,16.02
2022-12-04T08:00:55.352Z,15.32
2022-12-04T08:03:23.693Z,18.80
2022-12-04T08:05:50.073Z,16.35
2022-12-04T08:08:16.499Z,16.50
2022-12-04T08:10:42.838Z,18.33
2022-12-04T08:13:09.161Z,16.58
2022-12-04T08:15:35.656Z,16.10
2022-12-04T08:18:02.016Z,17.15
2022-12-04T08:20:28.390Z,18.25
2022-12-04T08:22:54.772Z,20.15
2022-12-04T08:25:21.225Z,17.50
2022-12-04T08:27:47.964Z,15.15
2022-12-04T08:30:14.550Z,16.25
2022-12-04T08:32:40.907Z,15.75
2022-12-04T08:35:07.731Z,16.40
2022-12-04T08:37:34.231Z,17.38
2022-12-04T08:40:00.645Z,17.95
2022-12-04T08:42:26.995Z,18.48
2022-12-04T08:44:53.302Z,16.15
2022-12-04T08:47:19.722Z,16.00
2022-12-04T08:49:46.087Z,17.38
2022-12-04T08:52:12.417Z,15.63
2022-12-04T08:54:38.863Z,16.48
2022-12-04T08:57:05.330Z,17.77
2022-12-04T08:59:31.731Z,16.63
2022-12-04T09:01:58.171Z,16.30
2022-12-04T09:04:24.598Z,15.00
2022-12-04T09:06:50.926Z,16.17
2022-12-04T09:09:17.347Z,16.42
2022-12-04T09:11:46.184Z,17.02
2022-12-04T09:14:12.918Z,15.93
2022-12-04T09:16:39.349Z,16.08
2022-12-04T09:19:05.757Z,17.20
2022-12-04T09:21:32.117Z,17.13
2022-12-04T09:23:59.550Z,17.70
2022-12-04T09:26:28.769Z,20.30
2022-12-04T09:28:56.438Z,18.13
2022-12-04T09:31:24.046Z,19.52
2022-12-04T09:33:50.851Z,16.63
2022-12-04T09:36:18.688Z,18.02
2022-12-04T09:38:47.436Z,16.17
2022-12-04T09:41:20.841Z,19.70
2022-12-04T09:43:56.366Z,17.83
2022-12-04T09:49:19.118Z,17.55
2022-12-04T09:51:47.046Z,19.25
2022-12-04T09:54:18.140Z,19.63
2022-12-04T09:56:53.497Z,20.02
2022-12-04T09:59:24.710Z,20.15
2022-12-04T10:02:02.829Z,21.05
2022-12-04T10:04:30.554Z,17.90
2022-12-04T10:07:03.985Z,17.77
2022-12-04T10:09:48.807Z,18.80
2022-12-04T10:12:20.890Z,21.35
2022-12-04T10:15:14.661Z,19.00
2022-12-04T10:18:09.083Z,19.65
2022-12-04T10:20:45.832Z,22.45
2022-12-04T10:23:37.099Z,17.58
2022-12-04T10:26:09.498Z,19.98
2022-12-04T10:28:39.654Z,17.35
2022-12-04T10:31:10.961Z,21.83
2022-12-04T10:33:48.511Z,21.38
2022-12-04T10:36:21.615Z,19.52
2022-12-04T10:38:58.235Z,21.58
2022-12-04T10:41:50.842Z,23.63
2022-12-04T10:44:19.454Z,22.30
2022-12-04T10:46:47.098Z,22.45
2022-12-04T10:49:22.118Z,18.02
2022-12-04T10:51:48.982Z,23.55
2022-12-04T10:54:40.295Z,23.20
2022-12-04T10:57:10.634Z,19.75
2022-12-04T10:59:56.992Z,21.38
2022-12-04T11:02:29.785Z,20.25
2022-12-04T11:05:05.258Z,22.67
2022-12-04T11:07:43.017Z,17.33
2022-12-04T11:10:21.702Z,22.50
2022-12-04T11:12:59.742Z,19.77
2022-12-04T11:15:26.380Z,20.33
2022-12-04T11:17:53.134Z,25.55
2022-12-04T11:20:23.084Z,22.75
2022-12-04T11:22:57.022Z,25.48
2022-12-04T11:25:26.589Z,27.85
2022-12-04T11:27:56.366Z,25.77
2022-12-04T11:30:31.969Z,19.13
